Time;durP1;ratioP1;P1;durP2;ratioP2;P2;SDS_P1;SDS_P2;PMS_P1;PMS_P2;Temp;Humidity;BMP_temperature;BMP_pressure;BME280_temperature;BME280_humidity;BME280_pressure;Samples;Min_cycle;Max_cycle;Signal;HPM_P1;HPM_P2
2023/07/12 00:09:03;;;;;;;5.05;3.67;;;;;;;24.80;70.12;98693.09;7217952;40;21189;31
2023/07/12 00:19:25;;;;;;;5.95;3.33;;;;;;;24.70;69.88;98679.31;7190257;40;21159;31
2023/07/12 00:24:58;;;;;;;5.50;2.92;;;;;;;24.67;70.68;98672.41;7299536;39;20256;31
2023/07/12 00:30:28;;;;;;;6.48;3.46;;;;;;;24.67;70.52;98671.56;7284152;39;20325;31
2023/07/12 00:36:03;;;;;;;5.37;2.90;;;;;;;24.78;70.47;98651.22;7253561;40;20327;31
2023/07/12 00:41:37;;;;;;;4.28;3.05;;;;;;;24.78;70.17;98661.41;7223497;40;20331;31
2023/07/12 00:47:11;;;;;;;4.50;2.84;;;;;;;24.63;70.30;98659.41;7156022;40;20255;31
2023/07/12 00:52:46;;;;;;;5.15;3.10;;;;;;;24.61;69.15;98650.63;7153814;40;20262;31
2023/07/12 00:58:19;;;;;;;4.50;2.87;;;;;;;24.69;68.73;98647.31;7219284;40;20323;31
2023/07/12 01:03:51;;;;;;;3.87;2.73;;;;;;;24.63;68.88;98646.47;7221840;40;20373;31
2023/07/12 01:09:26;;;;;;;4.28;2.90;;;;;;;24.71;69.51;98642.34;7182262;40;20281;31
2023/07/12 01:15:02;;;;;;;4.80;3.00;;;;;;;24.80;68.61;98637.97;7125461;40;20318;31
2023/07/12 01:20:34;;;;;;;4.56;3.00;;;;;;;24.80;68.50;98624.19;7138792;40;20265;31
2023/07/12 01:26:27;;;;;;;5.25;3.10;;;;;;;24.65;68.46;98615.88;7164706;40;20263;31
2023/07/12 01:32:11;;;;;;;7.35;3.72;;;;;;;24.63;69.18;98593.28;7129617;40;20286;31
2023/07/12 01:37:31;;;;;;;5.80;3.62;;;;;;;24.49;69.82;98592.13;7096923;40;20244;31
2023/07/12 01:43:07;;;;;;;5.13;3.70;;;;;;;24.30;71.27;98571.69;7139660;40;20281;31
2023/07/12 01:48:24;;;;;;;7.33;4.23;;;;;;;24.16;70.10;98572.19;7138590;40;20269;31
2023/07/12 01:53:59;;;;;;;7.14;4.08;;;;;;;24.11;70.12;98572.16;7164162;40;21397;31
2023/07/12 01:59:35;;;;;;;6.25;3.95;;;;;;;24.17;70.80;98570.28;7154067;40;20261;31
2023/07/12 02:04:55;;;;;;;7.10;3.90;;;;;;;24.28;71.02;98573.88;7157263;40;20328;31
2023/07/12 02:10:43;;;;;;;5.25;3.50;;;;;;;24.26;70.12;98576.09;7220608;40;20264;31
2023/07/12 02:21:21;;;;;;;6.03;3.22;;;;;;;24.20;70.35;98573.31;7236130;40;21180;31
2023/07/12 02:26:41;;;;;;;6.70;3.37;;;;;;;24.14;71.35;98579.03;7202314;40;20261;31
2023/07/12 02:32:16;;;;;;;6.30;3.40;;;;;;;24.15;71.03;98586.19;7275046;39;20275;31
2023/07/12 02:37:52;;;;;;;6.35;3.70;;;;;;;24.08;71.16;98569.94;7273172;40;20527;31
2023/07/12 02:43:27;;;;;;;4.85;3.10;;;;;;;24.09;71.76;98568.03;7270844;39;20511;31
2023/07/12 02:48:47;;;;;;;5.25;3.47;;;;;;;23.99;71.41;98560.53;7232383;40;20265;31
2023/07/12 02:54:23;;;;;;;4.45;3.50;;;;;;;23.90;72.38;98555.81;7209004;40;20284;31
2023/07/12 02:59:58;;;;;;;6.87;4.10;;;;;;;23.79;73.01;98565.94;7203246;40;20320;31
2023/07/12 03:05:33;;;;;;;4.33;3.50;;;;;;;23.85;71.63;98559.38;7200414;40;20371;31
2023/07/12 03:11:09;;;;;;;5.03;3.33;;;;;;;23.94;70.76;98563.25;7207499;40;20253;31
2023/07/12 03:16:44;;;;;;;6.45;4.00;;;;;;;23.81;72.00;98569.25;7222068;40;20260;31
2023/07/12 03:22:04;;;;;;;6.17;3.53;;;;;;;23.74;70.78;98566.72;7193924;40;20262;31
2023/07/12 03:27:38;;;;;;;8.10;3.55;;;;;;;23.69;70.80;98571.41;7211148;40;20350;31
2023/07/12 05:34:03;;;;;;;7.40;5.60;;;;;;;23.29;78.70;98757.03;7405006;39;20369;31
2023/07/12 05:39:24;;;;;;;10.90;4.80;;;;;;;23.22;78.91;98763.81;7335060;39;20433;31
2023/07/12 05:50:17;;;;;;;7.25;4.95;;;;;;;23.42;78.77;98771.47;7277520;40;20281;31
2023/07/12 05:55:38;;;;;;;8.25;4.60;;;;;;;23.49;76.68;98778.44;7212008;40;21354;31
2023/07/12 06:01:10;;;;;;;7.45;4.10;;;;;;;23.47;77.27;98780.63;7235814;40;20316;31
2023/07/12 06:06:47;;;;;;;9.27;4.40;;;;;;;23.48;77.33;98773.19;7224347;40;20338;31
2023/07/12 06:17:47;;;;;;;5.78;4.05;;;;;;;23.51;76.73;98772.69;7325702;38;9805592;31
2023/07/12 06:23:02;;;;;;;10.30;4.45;;;;;;;23.58;75.90;98770.53;7489098;38;20273;31
2023/07/12 06:33:43;;;;;;;9.35;4.55;;;;;;;23.96;74.91;98769.50;7425116;39;20262;31
2023/07/12 06:39:19;;;;;;;8.05;4.12;;;;;;;24.09;74.63;98769.06;7364076;39;20438;31
2023/07/12 06:44:55;;;;;;;6.95;4.35;;;;;;;24.23;74.13;98782.13;7309575;39;20322;31
2023/07/12 06:50:29;;;;;;;7.68;4.37;;;;;;;24.33;73.18;98781.37;7285210;40;20418;31
2023/07/12 06:56:04;;;;;;;5.60;4.45;;;;;;;24.29;74.08;98790.41;7254141;39;20259;31
2023/07/12 07:01:40;;;;;;;7.40;4.80;;;;;;;24.44;72.12;98807.06;7247278;40;20249;31
2023/07/12 07:07:14;;;;;;;7.70;4.12;;;;;;;24.32;73.69;98806.41;7248890;40;20261;31
2023/07/12 07:12:34;;;;;;;8.75;4.45;;;;;;;24.45;72.94;98803.19;7271840;40;20250;31
2023/07/12 07:18:10;;;;;;;6.97;4.07;;;;;;;24.39;71.69;98799.59;7277217;40;20287;31
2023/07/12 07:23:45;;;;;;;5.78;4.10;;;;;;;24.56;72.11;98804.94;7301086;39;20348;31
2023/07/12 07:29:18;;;;;;;7.15;4.70;;;;;;;24.63;71.02;98813.78;7257882;40;20249;31
2023/07/12 07:34:39;;;;;;;10.00;4.20;;;;;;;24.99;69.98;98823.09;7218114;40;20262;31
2023/07/12 07:40:14;;;;;;;5.80;4.12;;;;;;;24.92;68.86;98825.28;7263824;40;20445;31
2023/07/12 07:45:35;;;;;;;6.62;3.85;;;;;;;25.27;66.82;98833.72;7299538;40;20350;31
2023/07/12 07:51:11;;;;;;;7.18;4.00;;;;;;;25.39;67.70;98841.75;7322311;39;20263;31
2023/07/12 07:56:47;;;;;;;6.53;3.43;;;;;;;25.60;66.76;98824.16;7298564;39;20256;31
2023/07/12 08:02:24;;;;;;;7.93;4.20;;;;;;;25.70;65.91;98824.19;7278819;40;20348;31
2023/07/12 08:07:59;;;;;;;5.72;3.95;;;;;;;25.66;64.60;98823.06;7207205;40;20327;31
2023/07/12 08:13:37;;;;;;;5.50;3.30;;;;;;;25.76;64.78;98822.22;7189761;40;20266;31
2023/07/12 08:19:13;;;;;;;5.40;3.80;;;;;;;26.25;63.46;98831.69;7194710;40;20456;31
2023/07/12 08:24:33;;;;;;;6.07;3.47;;;;;;;25.77;63.38;98834.94;7291842;39;20260;31
2023/07/12 08:30:09;;;;;;;5.82;3.47;;;;;;;25.86;63.39;98847.09;7246564;40;20281;31
2023/07/12 08:40:49;;;;;;;4.55;3.55;;;;;;;25.75;62.97;98849.03;7289155;39;20283;31
2023/07/12 08:46:22;;;;;;;3.63;2.77;;;;;;;26.09;60.60;98843.81;7305658;39;20259;31
2023/07/12 08:51:52;;;;;;;4.83;2.97;;;;;;;25.88;61.31;98844.91;7287483;39;20417;31
2023/07/12 08:57:33;;;;;;;6.80;3.40;;;;;;;25.99;61.78;98849.34;7212724;40;20451;31
2023/07/12 09:08:13;;;;;;;3.72;3.00;;;;;;;25.95;60.05;98862.88;7213848;40;20269;31
2023/07/12 09:13:48;;;;;;;9.52;3.22;;;;;;;26.50;59.94;98861.25;7293084;39;20248;31
2023/07/12 09:19:27;;;;;;;6.10;3.50;;;;;;;26.66;59.36;98862.06;7267109;40;20407;31
2023/07/12 09:25:04;;;;;;;7.44;3.30;;;;;;;26.60;58.83;98861.22;7312682;39;20260;31
2023/07/12 09:30:37;;;;;;;8.48;3.28;;;;;;;26.39;59.35;98868.72;7225972;40;20249;31
2023/07/12 09:36:11;;;;;;;6.75;3.70;;;;;;;26.26;59.82;98879.50;7195122;40;22072;31
2023/07/12 09:41:47;;;;;;;6.00;3.03;;;;;;;26.45;59.12;98880.59;7224721;40;20402;31
2023/07/12 09:47:21;;;;;;;5.75;2.90;;;;;;;27.05;57.01;98873.31;7250600;40;20641;31
2023/07/12 09:53:06;;;;;;;5.28;2.90;;;;;;;27.39;54.88;98885.38;7305899;39;20327;31
2023/07/12 09:58:43;;;;;;;3.10;2.65;;;;;;;27.53;53.19;98871.78;7270060;40;20793;31
2023/07/12 10:04:19;;;;;;;8.67;2.50;;;;;;;27.81;50.59;98882.16;7255988;40;20908;31
2023/07/12 10:09:55;;;;;;;6.18;2.92;;;;;;;27.98;51.05;98882.59;7242890;40;20346;31
2023/07/12 10:15:31;;;;;;;5.40;2.65;;;;;;;28.23;49.80;98884.38;7243550;40;20660;31
2023/07/12 10:21:06;;;;;;;3.30;2.30;;;;;;;27.84;50.03;98880.72;7253974;39;20536;31
2023/07/12 10:26:41;;;;;;;7.47;2.90;;;;;;;28.08;49.81;98881.69;7301680;39;20638;31
2023/07/12 10:32:18;;;;;;;5.66;2.70;;;;;;;28.38;49.36;98866.78;7256773;40;20334;31
2023/07/12 10:37:57;;;;;;;5.87;2.60;;;;;;;28.52;46.75;98865.81;7210233;40;20660;31
2023/07/12 10:43:32;;;;;;;4.75;2.37;;;;;;;28.68;47.68;98877.59;7176598;40;20262;31
2023/07/12 10:49:08;;;;;;;4.35;2.40;;;;;;;28.74;46.88;98873.69;7162860;40;20639;31
2023/07/12 10:54:59;;;;;;;5.30;2.40;;;;;;;28.90;46.08;98860.47;7204599;40;20649;31
2023/07/12 11:00:35;;;;;;;5.15;2.40;;;;;;;28.06;47.95;98872.81;7212235;40;20750;31
2023/07/12 11:06:15;;;;;;;4.95;2.35;;;;;;;28.06;49.08;98881.97;7203639;40;20547;31
2023/07/12 11:11:59;;;;;;;3.53;2.10;;;;;;;28.03;46.52;98865.09;7210975;40;20755;31
2023/07/12 11:17:36;;;;;;;4.97;2.25;;;;;;;27.98;45.60;98873.44;7199676;40;20280;31
2023/07/12 11:23:16;;;;;;;3.17;1.90;;;;;;;27.92;46.89;98875.41;7230768;40;20264;31
2023/07/12 11:28:54;;;;;;;4.70;2.50;;;;;;;27.75;45.29;98861.12;7316180;39;20657;31
2023/07/12 11:34:26;;;;;;;3.65;2.20;;;;;;;27.84;46.08;98853.03;7247767;40;20810;31
2023/07/12 11:40:02;;;;;;;3.60;2.20;;;;;;;28.06;45.51;98854.25;7229138;40;21064;31
2023/07/12 11:45:34;;;;;;;3.83;2.20;;;;;;;28.23;45.69;98863.03;7221330;40;20568;31
2023/07/12 11:51:06;;;;;;;5.55;2.30;;;;;;;28.20;46.66;98862.78;7186918;40;20813;31
2023/07/12 11:56:40;;;;;;;3.15;2.15;;;;;;;28.23;45.93;98860.25;7245223;39;20539;31
2023/07/12 12:02:12;;;;;;;3.48;1.92;;;;;;;28.20;46.23;98862.78;7275306;40;20635;31
2023/07/12 12:07:46;;;;;;;4.80;2.10;;;;;;;28.14;44.58;98870.28;7226342;40;20770;31
2023/07/12 12:13:31;;;;;;;4.47;2.40;;;;;;;28.16;44.55;98864.47;7280384;39;20451;31
2023/07/12 12:19:04;;;;;;;4.03;1.85;;;;;;;28.71;44.97;98865.09;7248792;40;20548;31
2023/07/12 12:24:24;;;;;;;3.30;2.08;;;;;;;28.93;42.49;98852.38;7258442;40;20253;31
2023/07/12 12:30:01;;;;;;;4.80;2.00;;;;;;;29.11;42.42;98842.47;7245954;40;20260;31
2023/07/12 12:35:36;;;;;;;4.80;2.30;;;;;;;29.10;42.42;98832.47;7239086;40;20749;31
2023/07/12 12:41:08;;;;;;;3.63;2.37;;;;;;;28.98;42.53;98840.41;7062091;40;20351;31
2023/07/12 12:46:44;;;;;;;3.00;2.20;;;;;;;29.27;42.84;98827.25;7218327;40;20441;31
2023/07/12 12:52:40;;;;;;;4.15;2.00;;;;;;;29.53;40.95;98834.16;7237404;40;20535;31
2023/07/12 13:03:21;;;;;;;6.12;2.15;;;;;;;29.57;41.87;98828.84;7182271;40;20279;31
2023/07/12 13:08:41;;;;;;;7.60;2.30;;;;;;;29.83;41.33;98827.34;7183204;40;20262;31
2023/07/12 13:14:02;;;;;;;3.12;2.03;;;;;;;29.64;40.46;98842.34;7191691;40;20268;31
2023/07/12 13:19:39;;;;;;;3.46;2.04;;;;;;;29.33;40.44;98847.50;7284702;40;20268;31
2023/07/12 13:24:59;;;;;;;4.95;1.95;;;;;;;29.44;42.02;98849.03;7244515;40;20262;31
2023/07/12 13:30:38;;;;;;;4.25;2.20;;;;;;;29.41;41.03;98833.78;7240729;40;20906;31
2023/07/12 13:36:11;;;;;;;4.05;1.67;;;;;;;28.98;41.26;98821.78;7244884;40;20381;31
2023/07/12 13:41:43;;;;;;;2.65;1.98;;;;;;;28.87;40.76;98817.50;7239896;40;20538;31
2023/07/12 13:47:20;;;;;;;2.85;1.87;;;;;;;28.95;41.92;98824.34;7251771;40;20663;31
2023/07/12 13:52:57;;;;;;;3.03;1.90;;;;;;;29.02;43.63;98819.25;7270605;39;20744;31
2023/07/12 13:58:31;;;;;;;3.00;1.76;;;;;;;28.78;42.79;98826.75;7262883;39;20682;31
2023/07/12 14:04:06;;;;;;;2.82;1.88;;;;;;;28.68;43.44;98844.31;7248237;40;20608;31
2023/07/12 14:09:42;;;;;;;3.33;1.87;;;;;;;28.79;44.26;98832.00;7282211;39;20546;31
2023/07/12 14:15:02;;;;;;;2.03;1.50;;;;;;;29.05;43.42;98840.84;7241917;40;20674;31
2023/07/12 14:20:35;;;;;;;2.60;1.60;;;;;;;29.11;42.38;98836.91;7240003;40;20656;31
2023/07/12 14:26:17;;;;;;;3.47;1.90;;;;;;;29.17;43.37;98838.50;7234543;40;20558;31
2023/07/12 14:31:46;;;;;;;4.27;1.80;;;;;;;29.16;42.24;98825.75;7186329;40;20753;31
2023/07/12 14:37:02;;;;;;;2.42;1.70;;;;;;;29.01;42.08;98821.19;7218382;40;20392;31
2023/07/12 14:42:34;;;;;;;3.88;1.84;;;;;;;28.85;42.87;98810.56;7232812;40;20361;31
2023/07/12 14:48:09;;;;;;;3.70;1.90;;;;;;;28.77;42.05;98823.16;7247025;40;20269;31
2023/07/12 14:53:27;;;;;;;2.90;1.70;;;;;;;28.79;43.20;98825.63;7266787;40;20254;31
2023/07/12 14:59:03;;;;;;;1.40;1.20;;;;;;;28.58;41.79;98814.72;7256289;40;20275;31
2023/07/12 15:04:21;;;;;;;2.30;1.45;;;;;;;28.57;41.70;98820.53;7225372;40;20283;31
2023/07/12 15:09:42;;;;;;;3.50;1.70;;;;;;;28.56;41.34;98833.63;7299928;39;20283;31
2023/07/12 15:20:23;;;;;;;2.90;1.60;;;;;;;28.33;40.72;98828.00;7314467;39;20275;31
2023/07/12 15:25:58;;;;;;;2.70;1.40;;;;;;;28.26;41.11;98824.75;7306298;39;20602;31
2023/07/12 15:31:34;;;;;;;2.10;1.40;;;;;;;28.14;41.28;98823.19;7275307;40;20987;31
2023/07/12 15:37:09;;;;;;;2.25;1.40;;;;;;;28.14;42.64;98825.94;7260099;40;20538;31
2023/07/12 15:42:30;;;;;;;1.85;1.50;;;;;;;28.15;41.39;98824.84;7250965;40;20870;31
2023/07/12 15:48:04;;;;;;;3.24;1.66;;;;;;;28.09;42.46;98836.22;7242615;40;20724;31
2023/07/12 15:53:39;;;;;;;3.22;1.58;;;;;;;27.85;42.36;98833.34;7265411;40;20733;31
2023/07/12 15:59:13;;;;;;;2.00;1.60;;;;;;;27.79;42.19;98827.03;7256203;40;20556;31
2023/07/12 16:04:48;;;;;;;1.48;1.35;;;;;;;27.79;42.22;98828.97;7235459;40;20540;31
2023/07/12 16:10:25;;;;;;;2.17;1.45;;;;;;;27.76;42.62;98833.13;7265771;40;20677;31
2023/07/12 16:16:00;;;;;;;2.07;1.50;;;;;;;27.60;41.95;98839.06;7238579;40;20711;31
2023/07/12 16:21:31;;;;;;;3.83;1.50;;;;;;;27.49;42.98;98843.00;7227625;40;20280;31
2023/07/12 16:27:07;;;;;;;3.02;1.80;;;;;;;27.50;43.84;98853.78;7210062;40;20729;31
2023/07/12 16:32:44;;;;;;;2.30;1.67;;;;;;;27.56;42.58;98860.94;7220598;40;20572;31
2023/07/12 16:38:30;;;;;;;3.65;1.60;;;;;;;27.48;43.87;98844.94;7098090;40;20308;31
2023/07/12 16:44:06;;;;;;;3.34;1.66;;;;;;;27.52;44.09;98851.56;7172408;40;20559;31
2023/07/12 16:49:39;;;;;;;2.65;1.95;;;;;;;27.49;42.85;98865.97;7223830;40;20273;31
2023/07/12 16:55:14;;;;;;;3.30;1.60;;;;;;;27.25;42.99;98864.97;7217745;40;20897;31
2023/07/12 17:00:50;;;;;;;3.53;1.52;;;;;;;27.18;41.37;98859.72;7187682;40;20651;31
2023/07/12 17:06:08;;;;;;;3.10;1.80;;;;;;;27.23;41.67;98869.94;7214257;40;20709;31
2023/07/12 17:11:44;;;;;;;2.78;1.66;;;;;;;27.12;41.75;98860.84;7236402;40;20252;31
2023/07/12 17:17:18;;;;;;;2.95;1.60;;;;;;;27.08;41.64;98864.44;7254071;40;20593;31
2023/07/12 17:22:51;;;;;;;2.50;1.60;;;;;;;27.03;42.62;98854.22;7248088;40;20983;31
2023/07/12 17:28:26;;;;;;;2.90;1.77;;;;;;;26.94;41.70;98857.87;7256784;40;20257;31
2023/07/12 17:34:00;;;;;;;2.95;1.55;;;;;;;26.83;41.81;98860.63;7289754;39;20331;31
2023/07/12 17:39:35;;;;;;;2.55;1.50;;;;;;;26.85;42.16;98847.38;7282601;39;20914;31
2023/07/12 17:45:04;;;;;;;2.50;1.60;;;;;;;26.83;42.54;98845.97;7184457;40;20791;31
2023/07/12 17:55:45;;;;;;;1.80;1.55;;;;;;;26.84;42.49;98839.34;7250323;39;20326;31
2023/07/12 18:01:17;;;;;;;2.60;1.70;;;;;;;26.68;42.80;98824.69;7214626;40;21150;31
2023/07/12 18:06:37;;;;;;;3.05;1.65;;;;;;;26.75;42.73;98828.03;7180428;40;20314;31
2023/07/12 18:12:13;;;;;;;2.64;1.70;;;;;;;26.83;43.39;98805.31;7257583;40;20292;31
2023/07/12 18:17:45;;;;;;;3.28;1.80;;;;;;;26.87;42.89;98775.16;7206428;40;20715;31
2023/07/12 18:23:24;;;;;;;2.55;1.70;;;;;;;26.82;43.29;98798.09;7258041;40;20795;31
2023/07/12 18:29:00;;;;;;;3.45;1.70;;;;;;;26.63;43.08;98799.03;7275248;40;20767;31
2023/07/12 18:34:20;;;;;;;2.45;1.80;;;;;;;26.60;43.26;98813.38;7199314;40;21008;31
2023/07/12 18:39:57;;;;;;;3.40;1.67;;;;;;;26.47;43.67;98839.69;7230044;40;20431;31
2023/07/12 18:45:34;;;;;;;2.45;1.70;;;;;;;26.32;43.37;98845.25;7012340;40;20275;31
2023/07/12 18:50:52;;;;;;;2.20;1.50;;;;;;;26.29;44.15;98848.53;7222934;40;21937;31
2023/07/12 18:56:29;;;;;;;2.90;1.50;;;;;;;26.19;43.60;98860.41;7253023;40;20279;31
2023/07/12 19:06:56;;;;;;;2.12;1.65;;;;;;;26.06;44.04;98888.59;7294930;39;20333;31
2023/07/12 19:12:31;;;;;;;2.10;1.67;;;;;;;25.95;44.40;98887.72;7344819;39;20547;31
2023/07/12 19:18:06;;;;;;;3.30;1.80;;;;;;;25.94;44.82;98882.47;7298737;40;20548;31
2023/07/12 19:23:42;;;;;;;3.65;1.70;;;;;;;25.97;44.50;98891.06;7301065;39;20875;31
2023/07/12 19:29:17;;;;;;;3.65;1.50;;;;;;;25.95;44.96;98881.37;7249832;40;20599;31
2023/07/12 19:34:33;;;;;;;3.20;1.60;;;;;;;25.86;44.62;98885.78;7251205;40;20322;31
2023/07/12 19:45:14;;;;;;;2.80;1.70;;;;;;;25.78;44.79;98914.75;7238596;40;20301;31
2023/07/12 19:50:49;;;;;;;2.75;1.70;;;;;;;25.80;45.19;98907.03;7245197;40;20729;31
2023/07/12 20:01:29;;;;;;;3.95;1.60;;;;;;;25.81;44.93;98902.34;7276264;40;20468;31
2023/07/12 20:06:51;;;;;;;3.23;1.83;;;;;;;25.76;45.13;98908.66;7243616;40;21984;31
2023/07/12 20:17:28;;;;;;;3.36;1.74;;;;;;;25.37;45.75;98899.94;7318392;39;20264;31
2023/07/12 20:23:03;;;;;;;1.60;1.40;;;;;;;25.34;44.93;98906.03;7324607;39;20260;31
2023/07/12 20:28:39;;;;;;;4.20;1.60;;;;;;;25.32;45.86;98894.41;7334521;39;20897;31
2023/07/12 20:39:19;;;;;;;2.65;1.60;;;;;;;25.16;45.02;98902.87;7301558;39;20304;31
2023/07/12 20:44:54;;;;;;;2.45;1.40;;;;;;;25.00;45.76;98916.63;7267414;40;20755;31
2023/07/12 20:55:33;;;;;;;2.60;1.50;;;;;;;24.69;46.12;98918.31;7294275;40;20394;31
2023/07/12 21:06:13;;;;;;;2.90;1.60;;;;;;;24.59;46.09;98945.78;7309159;39;20295;31
2023/07/12 21:11:47;;;;;;;2.80;1.35;;;;;;;24.51;45.08;98959.22;7262474;40;20272;31
2023/07/12 21:17:07;;;;;;;2.34;1.28;;;;;;;24.50;44.83;98957.56;7262369;39;20280;31
2023/07/12 21:22:43;;;;;;;3.23;1.30;;;;;;;24.40;43.94;98955.53;7321160;39;20278;31
2023/07/12 21:28:19;;;;;;;3.24;1.40;;;;;;;24.36;44.12;98948.06;7287088;39;20449;31
2023/07/12 21:33:54;;;;;;;1.73;1.20;;;;;;;24.39;45.13;98961.34;7264928;40;21462;31
2023/07/12 21:39:29;;;;;;;2.72;1.40;;;;;;;24.30;43.52;98969.25;7190922;40;20258;31
2023/07/12 21:45:03;;;;;;;4.82;1.60;;;;;;;23.97;43.61;98963.91;7120727;41;20259;31
2023/07/12 21:50:23;;;;;;;4.45;1.65;;;;;;;23.98;43.04;98969.16;7092575;41;20743;31
2023/07/12 21:55:58;;;;;;;1.70;1.20;;;;;;;23.83;43.80;98985.50;7160582;40;20242;31
2023/07/12 22:06:57;;;;;;;3.00;1.50;;;;;;;23.97;43.22;99041.84;7370892;40;20443;31
2023/07/12 22:12:32;;;;;;;6.75;1.40;;;;;;;23.91;43.51;99042.88;7327200;39;20256;31
2023/07/12 22:18:07;;;;;;;4.23;1.60;;;;;;;23.85;43.61;99060.41;7234800;40;20246;31
2023/07/12 22:23:43;;;;;;;5.00;1.40;;;;;;;23.88;43.23;99070.06;7237260;40;20804;31
2023/07/12 22:29:18;;;;;;;5.02;1.64;;;;;;;23.80;44.18;99093.37;7235787;40;20643;31
2023/07/12 22:34:39;;;;;;;4.73;1.60;;;;;;;23.80;44.10;99107.16;7282387;40;20794;31
2023/07/12 22:40:13;;;;;;;4.32;1.55;;;;;;;23.71;44.69;99126.03;7305033;39;20636;31
2023/07/12 22:45:47;;;;;;;3.05;1.70;;;;;;;23.51;44.59;99138.66;7284766;39;20252;31
2023/07/12 22:51:23;;;;;;;5.44;1.36;;;;;;;23.32;45.91;99149.88;7246340;40;20263;31
2023/07/12 22:57:02;;;;;;;3.10;1.60;;;;;;;23.14;45.98;99158.38;7197229;40;20251;31
2023/07/12 23:02:35;;;;;;;3.17;1.60;;;;;;;23.00;46.02;99164.44;7238215;40;20253;31
2023/07/12 23:08:08;;;;;;;4.77;1.63;;;;;;;22.92;47.35;99163.75;7237889;40;20252;31
2023/07/12 23:13:39;;;;;;;2.65;1.45;;;;;;;22.75;47.04;99153.81;7246109;40;20345;31
2023/07/12 23:19:00;;;;;;;1.65;1.20;;;;;;;22.51;47.78;99136.56;7207757;40;20262;31
2023/07/12 23:24:30;;;;;;;3.60;1.60;;;;;;;22.45;47.64;99130.16;7230536;40;20260;31
2023/07/12 23:30:05;;;;;;;3.35;1.40;;;;;;;22.47;47.46;99127.13;7202897;40;20273;31
2023/07/12 23:35:34;;;;;;;3.87;1.57;;;;;;;22.41;47.67;99117.16;7215963;40;20265;31
2023/07/12 23:41:04;;;;;;;4.15;1.90;;;;;;;22.31;47.44;99117.78;7216763;40;20270;31
2023/07/12 23:51:44;;;;;;;4.00;1.52;;;;;;;22.14;48.25;99127.84;7254048;40;20758;31
